createdAt,value
2019-03-23T00:01:24.587Z,95980.55
2019-03-23T00:03:56.715Z,95970.54
2019-03-23T00:06:31.070Z,95968.06
2019-03-23T00:09:04.840Z,95970.90
2019-03-23T00:11:36.939Z,95963.22
2019-03-23T00:14:08.821Z,95960.02
2019-03-23T00:16:41.144Z,95960.27
2019-03-23T00:19:13.203Z,95957.55
2019-03-23T00:21:45.221Z,95950.09
2019-03-23T00:24:17.280Z,95955.89
2019-03-23T00:26:49.231Z,95952.95
2019-03-23T00:29:21.421Z,95953.08
2019-03-23T00:31:53.329Z,95955.42
2019-03-23T00:34:25.509Z,95951.66
2019-03-23T00:36:57.572Z,95955.73
2019-03-23T00:39:29.849Z,95955.64
2019-03-23T00:42:02.035Z,95953.02
2019-03-23T00:44:34.004Z,95944.53
2019-03-23T00:47:06.861Z,95945.70
2019-03-23T00:49:38.935Z,95944.26
2019-03-23T00:52:10.974Z,95941.66
2019-03-23T00:54:43.240Z,95945.23
2019-03-23T00:57:15.396Z,95941.84
2019-03-23T00:59:47.411Z,95942.16
2019-03-23T01:02:19.604Z,95939.70
2019-03-23T01:04:51.829Z,95930.73
2019-03-23T01:07:23.938Z,95928.61
2019-03-23T01:09:56.011Z,95923.68
2019-03-23T01:12:28.218Z,95918.25
2019-03-23T01:15:00.492Z,95913.19
2019-03-23T01:17:32.525Z,95912.89
2019-03-23T01:20:04.863Z,95907.83
2019-03-23T01:22:37.099Z,95914.94
2019-03-23T01:25:09.402Z,95916.28
2019-03-23T01:27:41.573Z,95912.03
2019-03-23T01:30:13.800Z,95914.40
2019-03-23T01:32:45.867Z,95905.55
2019-03-23T01:35:17.906Z,95907.77
2019-03-23T01:37:50.053Z,95911.03
2019-03-23T01:40:22.131Z,95903.02
2019-03-23T01:42:54.386Z,95899.80
2019-03-23T01:45:26.442Z,95902.09
2019-03-23T01:47:58.406Z,95897.22
2019-03-23T01:50:30.577Z,95885.41
2019-03-23T01:53:02.522Z,95884.12
2019-03-23T01:55:34.593Z,95888.25
2019-03-23T01:58:06.510Z,95881.05
2019-03-23T02:00:38.934Z,95875.25
2019-03-23T02:03:11.225Z,95866.72
2019-03-23T02:05:44.228Z,95861.59
2019-03-23T02:08:16.252Z,95866.25
2019-03-23T02:10:48.150Z,95862.48
2019-03-23T02:13:20.347Z,95865.64
2019-03-23T02:15:52.154Z,95860.52
2019-03-23T02:18:23.936Z,95860.34
2019-03-23T02:20:56.671Z,95858.86
2019-03-23T02:23:28.671Z,95863.56
2019-03-23T02:26:01.792Z,95862.94
2019-03-23T02:28:33.878Z,95862.80
2019-03-23T02:31:07.304Z,95866.17
2019-03-23T02:33:39.380Z,95879.47
2019-03-23T02:36:11.462Z,95878.53
2019-03-23T02:38:43.625Z,95883.34
2019-03-23T02:41:15.861Z,95893.18
2019-03-23T02:43:47.876Z,95887.95
2019-03-23T02:46:19.935Z,95891.11
2019-03-23T02:48:51.971Z,95885.94
2019-03-23T02:51:24.214Z,95885.66
2019-03-23T02:53:56.143Z,95889.83
2019-03-23T02:56:28.253Z,95884.66
2019-03-23T02:59:00.369Z,95881.98
2019-03-23T03:01:32.454Z,95877.63
2019-03-23T03:04:04.554Z,95872.44
2019-03-23T03:06:36.639Z,95881.62
2019-03-23T03:09:09.070Z,95882.99
2019-03-23T03:11:41.214Z,95889.91
2019-03-23T03:14:13.360Z,95886.33
2019-03-23T03:16:45.432Z,95890.25
2019-03-23T03:19:17.467Z,95886.02
2019-03-23T03:21:49.722Z,95897.43
2019-03-23T03:24:21.498Z,95903.42
2019-03-23T03:26:53.415Z,95903.25
2019-03-23T03:29:25.519Z,95899.80
2019-03-23T03:31:57.498Z,95909.95
2019-03-23T03:34:29.542Z,95916.42
2019-03-23T03:37:01.607Z,95910.14
2019-03-23T03:39:33.577Z,95910.17
2019-03-23T03:42:05.640Z,95907.95
2019-03-23T03:44:37.706Z,95917.34
2019-03-23T03:47:09.500Z,95918.91
2019-03-23T03:49:41.728Z,95916.97
2019-03-23T03:52:13.821Z,95916.06
2019-03-23T03:54:46.048Z,95919.09
2019-03-23T03:57:17.997Z,95913.74
2019-03-23T03:59:51.088Z,95911.16
2019-03-23T04:02:23.184Z,95913.82
2019-03-23T04:04:55.142Z,95919.84
2019-03-23T04:07:27.082Z,95921.95
2019-03-23T04:09:58.969Z,95923.63
2019-03-23T04:12:31.025Z,95918.55
2019-03-23T04:15:02.897Z,95924.44
2019-03-23T04:17:34.728Z,95920.38
2019-03-23T04:20:07.010Z,95919.22
2019-03-23T04:22:39.128Z,95919.12
2019-03-23T04:25:11.405Z,95914.34
2019-03-23T04:27:43.416Z,95911.59
2019-03-23T04:30:15.918Z,95915.81
2019-03-23T04:32:47.732Z,95920.71
2019-03-23T04:35:19.909Z,95920.42
2019-03-23T04:37:51.978Z,95916.64
2019-03-23T04:40:23.767Z,95916.17
2019-03-23T04:42:55.868Z,95918.48
2019-03-23T04:45:27.869Z,95916.17
2019-03-23T04:48:00.000Z,95920.22
2019-03-23T04:50:32.035Z,95920.58
2019-03-23T04:53:04.199Z,95924.62
2019-03-23T04:55:36.220Z,95920.54
2019-03-23T04:58:08.323Z,95918.03
2019-03-23T05:00:40.487Z,95914.20
2019-03-23T05:03:12.603Z,95912.80
2019-03-23T05:05:44.699Z,95911.22
2019-03-23T05:08:16.455Z,95922.42
2019-03-23T05:10:48.487Z,95931.47
2019-03-23T05:13:20.262Z,95927.52
2019-03-23T05:15:52.394Z,95927.05
2019-03-23T05:18:24.642Z,95931.47
2019-03-23T05:20:56.860Z,95933.84
2019-03-23T05:23:29.160Z,95936.68
2019-03-23T05:26:01.172Z,95937.52
2019-03-23T05:28:33.284Z,95935.22
2019-03-23T05:31:07.103Z,95929.23
2019-03-23T05:33:39.475Z,95932.95
2019-03-23T05:36:11.350Z,95937.09
2019-03-23T05:38:44.650Z,95936.40
2019-03-23T05:41:16.891Z,95938.20
2019-03-23T05:43:49.027Z,95941.03
2019-03-23T05:46:20.944Z,95947.54
2019-03-23T05:48:52.926Z,95944.72
2019-03-23T05:51:25.053Z,95942.25
2019-03-23T05:53:56.793Z,95938.63
2019-03-23T05:56:28.991Z,95941.01
2019-03-23T05:59:01.290Z,95945.30
2019-03-23T06:01:33.068Z,95953.17
2019-03-23T06:04:05.285Z,95943.73
2019-03-23T06:06:38.381Z,95940.38
2019-03-23T06:09:10.456Z,95936.66
2019-03-23T06:11:42.617Z,95928.58
2019-03-23T06:14:14.848Z,95929.91
2019-03-23T06:16:46.848Z,95930.20
2019-03-23T06:19:18.767Z,95921.95
2019-03-23T06:21:50.596Z,95918.94
2019-03-23T06:24:22.637Z,95918.05
2019-03-23T06:26:54.458Z,95920.39
2019-03-23T06:29:26.099Z,95919.80
2019-03-23T06:31:57.916Z,95915.55
2019-03-23T06:34:29.660Z,95909.25
2019-03-23T06:37:01.647Z,95903.77
2019-03-23T06:39:33.488Z,95900.23
2019-03-23T06:42:05.201Z,95897.62
2019-03-23T06:44:37.150Z,95903.03
2019-03-23T06:47:08.961Z,95901.55
2019-03-23T06:49:40.660Z,95894.28
2019-03-23T06:52:12.572Z,95906.84
2019-03-23T06:54:44.230Z,95911.80
2019-03-23T06:57:16.119Z,95908.80
2019-03-23T06:59:48.033Z,95911.38
2019-03-23T07:02:19.840Z,95910.75
2019-03-23T07:04:51.675Z,95909.95
2019-03-23T07:07:23.608Z,95915.13
2019-03-23T07:09:57.446Z,95911.27
2019-03-23T07:12:29.351Z,95899.99
2019-03-23T07:15:01.102Z,95903.34
2019-03-23T07:17:32.880Z,95898.38
2019-03-23T07:20:05.097Z,95902.75
2019-03-23T07:22:36.910Z,95896.17
2019-03-23T07:25:09.348Z,95894.71
2019-03-23T07:27:41.182Z,95892.97
2019-03-23T07:30:14.746Z,95895.69
2019-03-23T07:32:46.858Z,95894.86
2019-03-23T07:35:19.151Z,95891.11
2019-03-23T07:37:51.159Z,95895.52
2019-03-23T07:40:22.900Z,95881.14
2019-03-23T07:42:54.986Z,95881.60
2019-03-23T07:45:26.811Z,95881.15
2019-03-23T07:47:59.630Z,95886.92
2019-03-23T07:50:31.341Z,95880.73
2019-03-23T07:53:03.297Z,95881.78
2019-03-23T07:55:35.090Z,95868.80
2019-03-23T07:58:06.754Z,95864.38
2019-03-23T08:00:40.915Z,95865.33
2019-03-23T08:03:12.350Z,95865.70
2019-03-23T08:05:44.166Z,95865.52
2019-03-23T08:08:15.736Z,95864.25
2019-03-23T08:10:47.717Z,95861.77
2019-03-23T08:13:19.222Z,95860.92
2019-03-23T08:15:51.349Z,95853.89
2019-03-23T08:18:23.327Z,95851.22
2019-03-23T08:20:55.114Z,95851.39
2019-03-23T08:23:26.679Z,95849.44
2019-03-23T08:25:58.562Z,95842.31
2019-03-23T08:28:32.401Z,95840.20
2019-03-23T08:31:03.835Z,95831.26
2019-03-23T08:33:35.637Z,95835.81
2019-03-23T08:36:07.465Z,95835.81
2019-03-23T08:38:39.297Z,95831.40
2019-03-23T08:41:10.867Z,95832.99
2019-03-23T08:43:42.614Z,95832.86
2019-03-23T08:46:14.263Z,95828.05
2019-03-23T08:48:46.026Z,95826.38
2019-03-23T08:51:17.557Z,95822.59
2019-03-23T08:53:49.436Z,95822.95
2019-03-23T08:56:21.278Z,95824.11
2019-03-23T08:58:50.392Z,95810.61
2019-03-23T09:01:22.282Z,95807.23
2019-03-23T09:03:54.312Z,95801.90
2019-03-23T09:06:26.185Z,95795.31
2019-03-23T09:08:58.966Z,95798.66
2019-03-23T09:11:30.673Z,95790.37
2019-03-23T09:14:02.290Z,95794.39
2019-03-23T09:16:33.883Z,95788.30
2019-03-23T09:19:05.704Z,95788.62
2019-03-23T09:21:37.579Z,95787.31
2019-03-23T09:24:09.481Z,95781.08
2019-03-23T09:26:41.373Z,95781.08
2019-03-23T09:29:13.239Z,95786.92
2019-03-23T09:31:45.238Z,95779.72
2019-03-23T09:34:17.199Z,95779.72
2019-03-23T09:36:49.105Z,95771.52
2019-03-23T09:39:20.865Z,95772.20
2019-03-23T09:41:52.791Z,95760.77
2019-03-23T09:44:25.224Z,95760.77
2019-03-23T09:46:58.394Z,95756.87
2019-03-23T09:49:30.265Z,95756.65
2019-03-23T09:52:02.129Z,95755.58
2019-03-23T09:54:35.037Z,95754.23
2019-03-23T09:57:06.978Z,95752.05
2019-03-23T09:59:38.985Z,95747.47
2019-03-23T10:02:10.756Z,95743.72
2019-03-23T10:04:42.616Z,95749.45
2019-03-23T10:07:14.542Z,95744.36
2019-03-23T10:09:47.167Z,95742.38
2019-03-23T10:12:19.237Z,95748.17
2019-03-23T10:14:51.177Z,95748.04
2019-03-23T10:17:22.820Z,95741.36
2019-03-23T10:19:54.689Z,95751.78
2019-03-23T10:22:26.420Z,95749.53
2019-03-23T10:24:58.122Z,95740.05
2019-03-23T10:27:30.540Z,95734.03
2019-03-23T10:30:02.444Z,95734.49
2019-03-23T10:32:35.658Z,95735.23
2019-03-23T10:35:09.010Z,95734.45
2019-03-23T10:37:40.757Z,95727.27
2019-03-23T10:40:12.691Z,95718.90
2019-03-23T10:42:44.742Z,95711.30
2019-03-23T10:45:16.903Z,95714.17
2019-03-23T10:50:26.691Z,95711.28
2019-03-23T10:53:00.008Z,95698.89
2019-03-23T10:55:32.065Z,95698.89
2019-03-23T10:58:04.081Z,95692.59
2019-03-23T11:00:35.972Z,95682.75
2019-03-23T11:03:07.905Z,95675.13
2019-03-23T11:05:39.405Z,95677.94
2019-03-23T11:08:11.051Z,95674.05
2019-03-23T11:10:42.584Z,95679.64
2019-03-23T11:13:14.143Z,95668.77
2019-03-23T11:15:45.849Z,95658.39
2019-03-23T11:18:17.759Z,95660.80
2019-03-23T11:20:49.659Z,95653.41
2019-03-23T11:23:21.299Z,95655.21
2019-03-23T11:25:53.117Z,95645.95
2019-03-23T11:28:24.871Z,95646.22
2019-03-23T11:30:56.618Z,95642.48
2019-03-23T11:33:28.111Z,95636.16
2019-03-23T11:35:59.833Z,95641.27
2019-03-23T11:38:32.998Z,95628.41
2019-03-23T11:41:05.006Z,95623.06
2019-03-23T11:43:36.852Z,95616.16
2019-03-23T11:46:08.630Z,95614.12
2019-03-23T11:48:40.368Z,95609.63
2019-03-23T11:51:11.814Z,95616.11
2019-03-23T11:53:43.697Z,95607.72
2019-03-23T11:56:15.296Z,95604.47
2019-03-23T11:58:47.202Z,95598.72
2019-03-23T12:01:19.053Z,95600.22
2019-03-23T12:03:51.005Z,95593.52
2019-03-23T12:06:22.848Z,95581.96
2019-03-23T12:08:54.693Z,95585.25
2019-03-23T12:11:26.560Z,95578.20
2019-03-23T12:13:58.192Z,95567.77
2019-03-23T12:16:30.005Z,95564.53
2019-03-23T12:19:01.829Z,95565.05
2019-03-23T12:21:33.640Z,95555.24
2019-03-23T12:24:05.327Z,95553.64
2019-03-23T12:26:37.135Z,95547.30
2019-03-23T12:29:10.483Z,95544.84
2019-03-23T12:31:42.393Z,95540.19
2019-03-23T12:34:14.159Z,95538.12
2019-03-23T12:36:45.923Z,95535.17
2019-03-23T12:39:17.493Z,95539.85
2019-03-23T12:41:49.418Z,95542.50
2019-03-23T12:44:21.060Z,95536.96
2019-03-23T12:46:52.810Z,95531.87
2019-03-23T12:49:24.756Z,95531.58
2019-03-23T12:51:56.419Z,95520.61
2019-03-23T12:54:28.240Z,95517.41
2019-03-23T12:57:00.086Z,95529.08
2019-03-23T12:59:31.906Z,95525.42
2019-03-23T13:02:03.999Z,95517.39
2019-03-23T13:04:36.045Z,95514.77
2019-03-23T13:07:07.767Z,95511.00
2019-03-23T13:09:39.632Z,95513.25
2019-03-23T13:12:12.466Z,95504.53
2019-03-23T13:14:44.208Z,95503.04
2019-03-23T13:17:16.004Z,95506.97
2019-03-23T13:19:47.661Z,95500.84
2019-03-23T13:22:19.525Z,95487.62
2019-03-23T13:24:51.381Z,95485.58
2019-03-23T13:27:23.185Z,95482.84
2019-03-23T13:29:54.967Z,95480.95
2019-03-23T13:32:27.032Z,95477.56
2019-03-23T13:34:59.768Z,95471.80
2019-03-23T13:37:31.529Z,95468.28
2019-03-23T13:40:03.598Z,95473.60
2019-03-23T13:42:35.437Z,95467.68
2019-03-23T13:45:08.788Z,95456.12
2019-03-23T13:47:40.438Z,95456.87
2019-03-23T13:50:12.651Z,95459.28
2019-03-23T13:52:44.503Z,95461.75
2019-03-23T13:55:27.240Z,95449.90
2019-03-23T13:58:10.578Z,95446.47
2019-03-23T14:00:42.724Z,95447.27
2019-03-23T14:03:14.709Z,95452.78
2019-03-23T14:05:46.325Z,95442.50
2019-03-23T14:08:18.155Z,95446.03
2019-03-23T14:10:50.059Z,95440.09
2019-03-23T14:13:21.513Z,95439.03
2019-03-23T14:15:53.487Z,95433.91
2019-03-23T14:18:25.316Z,95435.36
2019-03-23T14:20:57.069Z,95425.18
2019-03-23T14:23:28.744Z,95422.38
2019-03-23T14:26:00.511Z,95426.13
2019-03-23T14:28:32.231Z,95425.97
2019-03-23T14:31:04.209Z,95422.59
2019-03-23T14:33:36.001Z,95424.30
2019-03-23T14:36:07.854Z,95422.88
2019-03-23T14:38:39.389Z,95423.28
2019-03-23T14:41:11.536Z,95422.38
2019-03-23T14:43:43.261Z,95420.25
2019-03-23T14:46:15.476Z,95418.91
2019-03-23T14:48:47.401Z,95414.80
2019-03-23T14:51:19.319Z,95413.73
2019-03-23T14:53:51.266Z,95410.56
2019-03-23T14:56:23.141Z,95415.19
2019-03-23T14:58:54.975Z,95410.44
2019-03-23T15:01:26.885Z,95410.73
2019-03-23T15:03:58.593Z,95415.81
2019-03-23T15:06:30.207Z,95417.78
2019-03-23T15:09:03.167Z,95416.33
2019-03-23T15:11:35.529Z,95411.68
2019-03-23T15:14:07.425Z,95407.79
2019-03-23T15:16:38.902Z,95411.09
2019-03-23T15:19:10.385Z,95413.51
2019-03-23T15:21:41.946Z,95415.31
2019-03-23T15:24:13.698Z,95418.74
2019-03-23T15:26:45.728Z,95415.87
2019-03-23T15:29:17.307Z,95414.41
2019-03-23T15:31:49.037Z,95418.96
2019-03-23T15:34:20.829Z,95420.02
2019-03-23T15:36:52.791Z,95416.93
2019-03-23T15:39:24.647Z,95414.69
2019-03-23T15:41:56.687Z,95418.17
2019-03-23T15:44:28.295Z,95422.29
2019-03-23T15:47:00.228Z,95426.16
2019-03-23T15:49:31.950Z,95427.83
2019-03-23T15:52:03.773Z,95427.27
2019-03-23T15:54:35.346Z,95434.00
2019-03-23T15:57:07.103Z,95434.50
2019-03-23T15:59:38.961Z,95437.14
2019-03-23T16:02:10.975Z,95444.67
2019-03-23T16:04:42.952Z,95442.23
2019-03-23T16:07:14.797Z,95436.19
2019-03-23T16:09:46.613Z,95442.74
2019-03-23T16:12:18.474Z,95436.20
2019-03-23T16:14:50.630Z,95438.33
2019-03-23T16:17:22.643Z,95440.09
2019-03-23T16:19:54.275Z,95441.84
2019-03-23T16:22:26.068Z,95439.70
2019-03-23T16:24:57.850Z,95436.36
2019-03-23T16:27:29.688Z,95452.31
2019-03-23T16:30:01.533Z,95448.07
2019-03-23T16:32:33.161Z,95454.97
2019-03-23T16:35:05.381Z,95457.66
2019-03-23T16:37:37.386Z,95459.37
2019-03-23T16:40:10.405Z,95462.09
2019-03-23T16:42:45.616Z,95463.05
2019-03-23T16:45:15.768Z,95463.05
2019-03-23T16:47:47.762Z,95465.64
2019-03-23T16:50:19.693Z,95466.84
2019-03-23T16:52:51.459Z,95461.95
2019-03-23T16:55:23.360Z,95460.63
2019-03-23T16:57:55.478Z,95463.88
2019-03-23T17:00:37.528Z,95463.69
2019-03-23T17:03:09.291Z,95463.41
2019-03-23T17:05:41.010Z,95460.77
2019-03-23T17:08:12.922Z,95469.27
2019-03-23T17:10:44.697Z,95467.92
2019-03-23T17:13:16.566Z,95470.21
2019-03-23T17:15:48.300Z,95472.09
2019-03-23T17:18:21.725Z,95473.64
2019-03-23T17:20:55.127Z,95475.83
2019-03-23T17:23:26.775Z,95476.03
2019-03-23T17:25:58.551Z,95470.69
2019-03-23T17:28:30.338Z,95471.61
2019-03-23T17:31:01.851Z,95471.61
2019-03-23T17:33:33.747Z,95484.46
2019-03-23T17:36:05.732Z,95482.23
2019-03-23T17:38:37.552Z,95486.81
2019-03-23T17:41:10.504Z,95486.81
2019-03-23T17:43:42.581Z,95488.49
2019-03-23T17:46:14.116Z,95494.11
2019-03-23T17:48:45.948Z,95496.31
2019-03-23T17:51:18.038Z,95493.05
2019-03-23T17:53:58.319Z,95499.36
2019-03-23T17:56:23.500Z,95500.58
2019-03-23T17:58:55.503Z,95500.58
2019-03-23T18:01:27.444Z,95504.94
2019-03-23T18:03:59.223Z,95505.22
2019-03-23T18:06:30.943Z,95512.61
2019-03-23T18:09:02.807Z,95512.22
2019-03-23T18:11:35.704Z,95514.41
2019-03-23T18:14:07.250Z,95514.41
2019-03-23T18:16:38.932Z,95504.37
2019-03-23T18:19:10.565Z,95504.37
2019-03-23T18:21:42.493Z,95513.91
2019-03-23T18:24:14.454Z,95513.91
2019-03-23T18:26:46.276Z,95519.56
2019-03-23T18:29:18.341Z,95514.33
2019-03-23T18:31:50.297Z,95523.11
2019-03-23T18:34:22.023Z,95523.11
2019-03-23T18:36:54.681Z,95522.69
2019-03-23T18:39:26.379Z,95522.69
2019-03-23T18:41:58.348Z,95527.45
2019-03-23T18:44:30.119Z,95529.67
2019-03-23T18:47:03.179Z,95522.13
2019-03-23T18:49:34.906Z,95539.73
2019-03-23T18:52:06.549Z,95534.84
2019-03-23T18:54:39.553Z,95538.45
2019-03-23T18:57:11.348Z,95536.18
2019-03-23T18:59:43.149Z,95540.41
2019-03-23T19:02:14.781Z,95543.63
2019-03-23T19:04:46.364Z,95543.23
2019-03-23T19:07:18.134Z,95543.22
2019-03-23T19:09:49.992Z,95539.61
2019-03-23T19:12:21.652Z,95540.02
2019-03-23T19:14:53.576Z,95538.23
2019-03-23T19:17:25.310Z,95537.01
2019-03-23T19:19:56.844Z,95541.53
2019-03-23T19:22:29.490Z,95546.22
2019-03-23T19:25:01.286Z,95547.47
2019-03-23T19:27:32.769Z,95550.86
2019-03-23T19:30:04.565Z,95554.56
2019-03-23T19:32:36.509Z,95560.87
2019-03-23T19:35:08.531Z,95563.36
2019-03-23T19:37:40.176Z,95563.03
2019-03-23T19:40:12.332Z,95562.66
2019-03-23T19:42:44.124Z,95563.09
2019-03-23T19:45:16.117Z,95569.55
2019-03-23T19:47:47.803Z,95569.66
2019-03-23T19:50:20.124Z,95575.66
2019-03-23T19:52:52.042Z,95571.84
2019-03-23T19:55:24.038Z,95573.48
2019-03-23T19:57:55.937Z,95568.97
2019-03-23T20:00:27.707Z,95576.96
2019-03-23T20:02:59.516Z,95568.95
2019-03-23T20:05:31.271Z,95575.22
2019-03-23T20:08:03.738Z,95580.50
2019-03-23T20:10:35.911Z,95582.12
2019-03-23T20:13:08.084Z,95578.20
2019-03-23T20:15:40.254Z,95572.50
2019-03-23T20:18:11.862Z,95577.88
2019-03-23T20:20:43.741Z,95579.63
2019-03-23T20:23:15.641Z,95581.16
2019-03-23T20:25:47.570Z,95573.66
2019-03-23T20:28:19.469Z,95572.50
2019-03-23T20:30:51.602Z,95583.55
2019-03-23T20:33:24.038Z,95586.39
2019-03-23T20:35:56.009Z,95591.28
2019-03-23T20:38:28.008Z,95588.13
2019-03-23T20:40:59.959Z,95586.08
2019-03-23T20:43:31.916Z,95583.41
2019-03-23T20:46:03.595Z,95583.02
2019-03-23T20:48:36.570Z,95586.13
2019-03-23T20:51:08.589Z,95586.28
2019-03-23T20:53:40.370Z,95582.08
2019-03-23T20:56:12.040Z,95585.58
2019-03-23T20:58:43.687Z,95589.72
2019-03-23T21:01:15.339Z,95590.14
2019-03-23T21:03:47.038Z,95594.13
2019-03-23T21:06:18.588Z,95591.52
2019-03-23T21:08:50.172Z,95592.34
2019-03-23T21:11:21.733Z,95590.31
2019-03-23T21:13:53.312Z,95590.97
2019-03-23T21:16:24.916Z,95591.80
2019-03-23T21:18:56.510Z,95594.98
2019-03-23T21:21:28.081Z,95599.02
2019-03-23T21:24:00.076Z,95603.74
2019-03-23T21:26:31.882Z,95597.92
2019-03-23T21:29:03.735Z,95599.00
2019-03-23T21:31:35.940Z,95601.94
2019-03-23T21:34:07.962Z,95597.74
2019-03-23T21:36:39.759Z,95595.54
2019-03-23T21:39:11.706Z,95597.81
2019-03-23T21:41:43.748Z,95594.48
2019-03-23T21:44:15.891Z,95591.59
2019-03-23T21:46:47.714Z,95587.95
2019-03-23T21:49:20.516Z,95594.48
2019-03-23T21:51:52.789Z,95596.82
2019-03-23T21:54:24.434Z,95590.90
2019-03-23T21:56:56.092Z,95595.94
2019-03-23T21:59:29.103Z,95598.31
2019-03-23T22:02:00.744Z,95601.27
2019-03-23T22:04:32.647Z,95609.58
2019-03-23T22:07:04.880Z,95601.19
2019-03-23T22:09:36.971Z,95607.19
2019-03-23T22:12:09.246Z,95606.58
2019-03-23T22:14:41.895Z,95603.31
2019-03-23T22:17:14.439Z,95610.04
2019-03-23T22:19:46.596Z,95617.91
2019-03-23T22:22:18.598Z,95617.91
2019-03-23T22:24:50.559Z,95620.70
2019-03-23T22:27:22.751Z,95617.20
2019-03-23T22:29:52.055Z,95620.44
2019-03-23T22:32:24.513Z,95628.05
2019-03-23T22:34:56.743Z,95631.40
2019-03-23T22:37:29.052Z,95636.09
2019-03-23T22:40:01.058Z,95636.36
2019-03-23T22:42:33.155Z,95643.03
2019-03-23T22:45:05.437Z,95639.73
2019-03-23T22:47:37.534Z,95646.29
2019-03-23T22:50:10.623Z,95650.63
2019-03-23T22:52:42.808Z,95656.45
2019-03-23T22:55:15.073Z,95660.16
2019-03-23T22:57:47.217Z,95659.83
2019-03-23T23:00:23.116Z,95660.63
2019-03-23T23:02:56.839Z,95668.01
2019-03-23T23:05:28.964Z,95666.52
2019-03-23T23:08:01.300Z,95675.20
2019-03-23T23:10:33.554Z,95671.82
2019-03-23T23:13:05.877Z,95669.75
2019-03-23T23:15:38.016Z,95676.02
2019-03-23T23:18:10.174Z,95674.13
2019-03-23T23:20:42.170Z,95671.11
2019-03-23T23:23:14.475Z,95675.48
2019-03-23T23:25:46.561Z,95669.79
2019-03-23T23:28:18.828Z,95670.36
2019-03-23T23:30:50.941Z,95667.42
2019-03-23T23:33:22.916Z,95665.13
2019-03-23T23:35:54.829Z,95657.23
2019-03-23T23:38:26.736Z,95648.26
2019-03-23T23:40:58.800Z,95648.56
2019-03-23T23:43:30.954Z,95652.46
2019-03-23T23:46:02.871Z,95645.86
2019-03-23T23:48:34.965Z,95649.46
2019-03-23T23:51:07.162Z,95655.31
2019-03-23T23:53:39.132Z,95650.97
2019-03-23T23:56:11.335Z,95642.91
2019-03-23T23:58:43.386Z,95651.10
